createdAt,value
2018-03-14T00:01:04.412Z,95.70
2018-03-14T00:03:38.226Z,95.80
2018-03-14T00:06:11.960Z,95.70
2018-03-14T00:08:45.818Z,96.00
2018-03-14T00:11:19.804Z,96.10
2018-03-14T00:13:55.330Z,95.90
2018-03-14T00:16:29.673Z,96.80
2018-03-14T00:19:03.756Z,96.30
2018-03-14T00:21:39.254Z,96.00
2018-03-14T00:24:15.797Z,96.00
2018-03-14T00:26:50.391Z,95.70
2018-03-14T00:29:24.868Z,95.00
2018-03-14T00:31:59.220Z,94.60
2018-03-14T00:34:33.273Z,94.80
2018-03-14T00:37:07.189Z,94.40
2018-03-14T00:39:40.896Z,94.80
2018-03-14T00:42:15.388Z,95.00
2018-03-14T00:44:50.108Z,94.50
2018-03-14T00:47:24.109Z,95.00
2018-03-14T00:49:59.985Z,94.80
2018-03-14T00:52:33.599Z,94.80
2018-03-14T00:55:08.193Z,94.50
2018-03-14T00:57:42.049Z,94.80
2018-03-14T01:00:18.797Z,93.80
2018-03-14T01:02:53.329Z,93.80
2018-03-14T01:05:26.944Z,93.20
2018-03-14T01:08:00.714Z,93.70
2018-03-14T01:10:34.708Z,93.70
2018-03-14T01:13:09.320Z,93.20
2018-03-14T01:15:44.655Z,93.80
2018-03-14T01:18:18.528Z,93.80
2018-03-14T01:20:53.050Z,93.60
2018-03-14T01:23:27.028Z,93.60
2018-03-14T01:26:03.830Z,93.80
2018-03-14T01:28:38.043Z,93.90
2018-03-14T01:31:12.825Z,94.00
2018-03-14T01:33:47.318Z,93.70
2018-03-14T01:36:21.210Z,93.70
2018-03-14T01:38:55.983Z,94.00
2018-03-14T01:41:30.904Z,93.90
2018-03-14T01:44:04.778Z,94.00
2018-03-14T01:46:39.469Z,94.00
2018-03-14T01:49:16.897Z,94.00
2018-03-14T01:51:50.845Z,94.00
2018-03-14T01:54:28.466Z,94.10
2018-03-14T01:57:04.470Z,94.10
2018-03-14T01:59:39.045Z,94.30
2018-03-14T02:02:13.423Z,94.20
2018-03-14T02:04:47.823Z,94.20
2018-03-14T02:07:22.630Z,94.20
2018-03-14T02:09:57.198Z,94.50
2018-03-14T02:12:31.167Z,94.30
2018-03-14T02:15:06.100Z,94.10
2018-03-14T02:17:41.544Z,94.10
2018-03-14T02:20:15.667Z,93.70
2018-03-14T02:22:50.071Z,93.90
2018-03-14T02:25:23.893Z,94.10
2018-03-14T02:28:02.909Z,93.90
2018-03-14T02:30:38.782Z,94.00
2018-03-14T02:33:12.479Z,94.00
2018-03-14T02:35:47.759Z,94.20
2018-03-14T02:38:21.482Z,94.30
2018-03-14T02:40:56.578Z,94.00
2018-03-14T02:43:31.999Z,94.10
2018-03-14T02:46:06.858Z,94.50
2018-03-14T02:48:40.643Z,94.20
2018-03-14T02:51:14.984Z,94.40
2018-03-14T02:53:48.629Z,94.40
2018-03-14T02:56:22.365Z,94.30
2018-03-14T02:58:56.265Z,94.50
2018-03-14T03:01:30.082Z,94.60
2018-03-14T03:04:03.926Z,94.80
2018-03-14T03:06:37.827Z,94.80
2018-03-14T03:09:12.811Z,95.50
2018-03-14T03:11:46.941Z,95.40
2018-03-14T03:14:21.696Z,95.90
2018-03-14T03:16:56.013Z,96.60
2018-03-14T03:19:31.186Z,96.60
2018-03-14T03:22:05.045Z,96.70
2018-03-14T03:24:39.648Z,97.20
2018-03-14T03:27:14.315Z,97.40
2018-03-14T03:29:48.888Z,97.50
2018-03-14T03:32:22.566Z,97.40
2018-03-14T03:34:56.858Z,97.30
2018-03-14T03:37:30.898Z,97.00
2018-03-14T03:40:04.804Z,96.90
2018-03-14T03:42:38.505Z,96.80
2018-03-14T03:45:14.866Z,96.70
2018-03-14T03:47:49.538Z,96.10
2018-03-14T03:50:24.125Z,95.50
2018-03-14T03:53:00.953Z,95.40
2018-03-14T03:55:37.047Z,95.40
2018-03-14T03:58:11.738Z,94.60
2018-03-14T04:00:46.731Z,94.60
2018-03-14T04:03:22.778Z,95.00
2018-03-14T04:05:58.087Z,95.10
2018-03-14T04:08:32.911Z,95.10
2018-03-14T04:11:08.097Z,95.20
2018-03-14T04:13:42.831Z,95.20
2018-03-14T04:16:18.922Z,95.40
2018-03-14T04:18:53.529Z,95.70
2018-03-14T04:21:28.238Z,95.90
2018-03-14T04:24:03.130Z,96.20
2018-03-14T04:26:38.241Z,96.40
2018-03-14T04:29:19.408Z,96.50
2018-03-14T04:31:55.775Z,96.50
2018-03-14T04:34:32.018Z,96.80
2018-03-14T04:37:12.318Z,96.90
2018-03-14T04:39:48.255Z,97.00
2018-03-14T04:42:23.015Z,97.00
2018-03-14T04:44:58.699Z,97.10
2018-03-14T04:47:33.239Z,96.40
2018-03-14T04:50:07.244Z,96.40
2018-03-14T04:52:40.955Z,96.40
2018-03-14T04:55:15.230Z,96.10
2018-03-14T04:57:49.584Z,96.30
2018-03-14T05:00:28.434Z,96.40
2018-03-14T05:03:05.005Z,95.70
2018-03-14T05:05:40.351Z,95.60
2018-03-14T05:08:17.617Z,95.10
2018-03-14T05:10:56.029Z,95.40
2018-03-14T05:13:34.767Z,95.30
2018-03-14T05:16:11.989Z,95.50
2018-03-14T05:18:48.409Z,95.50
2018-03-14T05:21:25.920Z,95.00
2018-03-14T05:24:04.912Z,95.50
2018-03-14T05:26:49.933Z,95.40
2018-03-14T05:29:31.403Z,95.70
2018-03-14T05:32:08.167Z,96.00
2018-03-14T05:34:43.025Z,96.40
2018-03-14T05:37:21.629Z,96.40
2018-03-14T05:39:57.505Z,96.40
2018-03-14T05:42:31.882Z,96.40
2018-03-14T05:45:05.587Z,96.40
2018-03-14T05:47:42.974Z,96.40
2018-03-14T05:50:21.418Z,96.40
2018-03-14T05:52:59.266Z,96.40
2018-03-14T05:55:34.569Z,96.40
2018-03-14T05:58:11.436Z,96.40
2018-03-14T06:03:27.088Z,96.10
2018-03-14T06:06:02.525Z,95.40
2018-03-14T06:08:37.781Z,94.90
2018-03-14T06:11:12.664Z,94.70
2018-03-14T06:16:30.793Z,94.10
2018-03-14T06:19:05.406Z,94.20
2018-03-14T06:21:39.039Z,93.10
2018-03-14T06:24:12.918Z,93.50
2018-03-14T06:26:46.576Z,93.80
2018-03-14T06:29:20.737Z,92.50
2018-03-14T06:31:54.484Z,93.00
2018-03-14T06:34:28.959Z,91.70
2018-03-14T06:40:00.328Z,92.30
2018-03-14T06:42:35.250Z,92.40
2018-03-14T06:45:11.773Z,91.90
2018-03-14T06:47:48.202Z,91.80
2018-03-14T06:50:22.374Z,91.20
2018-03-14T06:52:57.011Z,91.20
2018-03-14T06:55:30.608Z,89.90
2018-03-14T06:58:04.449Z,90.00
2018-03-14T07:03:46.104Z,86.60
2018-03-14T07:06:19.823Z,86.50
2018-03-14T07:08:53.940Z,84.80
2018-03-14T07:11:27.693Z,85.00
2018-03-14T07:14:01.452Z,77.80
2018-03-14T07:16:35.181Z,80.70
2018-03-14T07:19:08.965Z,83.30
2018-03-14T07:21:43.538Z,84.40
2018-03-14T07:24:17.187Z,85.00
2018-03-14T07:26:51.054Z,79.10
2018-03-14T07:29:25.179Z,78.90
2018-03-14T07:31:58.869Z,78.00
2018-03-14T07:34:33.941Z,78.20
2018-03-14T07:37:07.582Z,78.20
2018-03-14T07:39:41.374Z,79.90
2018-03-14T07:42:15.119Z,81.40
2018-03-14T07:47:32.847Z,75.80
2018-03-14T07:52:49.341Z,75.60
2018-03-14T07:55:24.142Z,77.10
2018-03-14T07:57:57.975Z,77.30
2018-03-14T08:00:31.898Z,77.80
2018-03-14T08:03:05.600Z,74.30
2018-03-14T08:05:39.937Z,72.60
2018-03-14T08:08:13.818Z,72.60
2018-03-14T08:10:48.462Z,78.60
2018-03-14T08:13:22.961Z,79.60
2018-03-14T08:15:56.712Z,79.60
2018-03-14T08:18:31.365Z,77.30
2018-03-14T08:21:05.128Z,79.80
2018-03-14T08:23:38.845Z,76.00
2018-03-14T08:26:13.415Z,72.90
2018-03-14T08:28:47.186Z,73.40
2018-03-14T08:31:21.047Z,73.30
2018-03-14T08:33:54.885Z,72.70
2018-03-14T08:36:28.705Z,72.00
2018-03-14T08:39:02.502Z,73.10
2018-03-14T08:41:37.915Z,71.60
2018-03-14T08:44:14.329Z,71.50
2018-03-14T08:46:48.393Z,71.90
2018-03-14T08:49:23.197Z,61.10
2018-03-14T08:51:57.018Z,61.10
2018-03-14T08:54:30.798Z,67.00
2018-03-14T08:57:04.584Z,62.10
2018-03-14T08:59:38.360Z,59.70
2018-03-14T09:02:12.932Z,56.80
2018-03-14T09:04:46.639Z,56.00
2018-03-14T09:07:20.580Z,60.00
2018-03-14T09:09:54.226Z,50.60
2018-03-14T09:12:28.099Z,52.80
2018-03-14T09:15:02.008Z,46.10
2018-03-14T09:17:36.604Z,44.10
2018-03-14T09:20:10.445Z,45.40
2018-03-14T09:22:44.214Z,45.80
2018-03-14T09:25:17.844Z,39.50
2018-03-14T09:27:51.422Z,40.80
2018-03-14T09:30:26.369Z,41.00
2018-03-14T09:33:00.948Z,33.40
2018-03-14T09:35:34.882Z,33.20
2018-03-14T09:38:08.629Z,33.00
2018-03-14T09:40:42.398Z,30.90
2018-03-14T09:43:16.929Z,26.40
2018-03-14T09:45:54.553Z,26.40
2018-03-14T09:48:29.014Z,27.20
2018-03-14T09:51:02.822Z,26.10
2018-03-14T09:53:37.334Z,23.30
2018-03-14T09:56:11.099Z,22.70
2018-03-14T09:58:45.628Z,18.70
2018-03-14T10:01:25.536Z,18.70
2018-03-14T10:03:59.294Z,19.40
2018-03-14T10:06:33.055Z,18.60
2018-03-14T10:09:06.827Z,20.40
2018-03-14T10:11:40.575Z,20.00
2018-03-14T10:14:15.859Z,20.50
2018-03-14T10:16:49.544Z,20.50
2018-03-14T10:19:23.480Z,19.80
2018-03-14T10:21:57.353Z,20.40
2018-03-14T10:24:31.156Z,19.80
2018-03-14T10:27:05.003Z,19.10
2018-03-14T10:29:38.750Z,20.00
2018-03-14T10:32:12.584Z,19.20
2018-03-14T10:34:46.385Z,18.10
2018-03-14T10:37:20.185Z,18.90
2018-03-14T10:39:53.822Z,17.80
2018-03-14T10:42:27.672Z,18.40
2018-03-14T10:45:01.422Z,19.20
2018-03-14T10:47:35.311Z,19.00
2018-03-14T10:50:09.145Z,16.50
2018-03-14T10:52:42.869Z,16.60
2018-03-14T10:55:16.657Z,16.20
2018-03-14T10:57:50.410Z,16.70
2018-03-14T11:00:27.128Z,15.90
2018-03-14T11:03:01.710Z,15.30
2018-03-14T11:05:36.369Z,16.50
2018-03-14T11:08:10.077Z,17.80
2018-03-14T11:10:45.036Z,15.90
2018-03-14T11:13:19.445Z,15.70
2018-03-14T11:15:53.026Z,15.40
2018-03-14T11:18:26.854Z,14.60
2018-03-14T11:21:01.500Z,14.40
2018-03-14T11:23:36.753Z,15.30
2018-03-14T11:26:11.431Z,15.30
2018-03-14T11:28:45.101Z,15.10
2018-03-14T11:31:18.902Z,15.10
2018-03-14T11:33:55.153Z,16.40
2018-03-14T11:36:28.881Z,15.90
2018-03-14T11:39:03.260Z,15.90
2018-03-14T11:41:39.089Z,15.50
2018-03-14T11:44:13.274Z,15.40
2018-03-14T11:46:47.886Z,15.40
2018-03-14T11:49:21.717Z,14.40
2018-03-14T11:51:56.241Z,13.20
2018-03-14T11:54:30.845Z,13.00
2018-03-14T11:57:04.515Z,13.00
2018-03-14T11:59:38.217Z,13.20
2018-03-14T12:02:12.692Z,14.20
2018-03-14T12:04:46.726Z,14.10
2018-03-14T12:07:20.474Z,14.60
2018-03-14T12:09:56.684Z,14.90
2018-03-14T12:12:30.529Z,14.90
2018-03-14T12:15:04.446Z,15.30
2018-03-14T12:17:38.267Z,14.80
2018-03-14T12:20:12.131Z,14.40
2018-03-14T12:22:47.450Z,14.30
2018-03-14T12:25:22.022Z,14.30
2018-03-14T12:27:56.574Z,13.70
2018-03-14T12:30:30.327Z,13.20
2018-03-14T12:33:04.314Z,12.70
2018-03-14T12:35:37.889Z,13.90
2018-03-14T12:38:13.229Z,14.40
2018-03-14T12:40:48.304Z,12.90
2018-03-14T12:43:22.788Z,13.30
2018-03-14T12:45:56.444Z,13.30
2018-03-14T12:48:30.286Z,13.70
2018-03-14T12:51:04.035Z,13.50
2018-03-14T12:53:37.861Z,13.70
2018-03-14T12:56:12.159Z,12.40
2018-03-14T12:58:46.830Z,13.20
2018-03-14T13:01:21.605Z,12.90
2018-03-14T13:03:55.425Z,14.40
2018-03-14T13:06:29.205Z,15.30
2018-03-14T13:09:03.556Z,15.50
2018-03-14T13:11:38.176Z,15.60
2018-03-14T13:14:11.815Z,14.00
2018-03-14T13:16:46.525Z,14.20
2018-03-14T13:19:20.319Z,14.50
2018-03-14T13:21:54.034Z,15.00
2018-03-14T13:24:28.988Z,16.40
2018-03-14T13:27:02.812Z,16.30
2018-03-14T13:29:36.552Z,16.00
2018-03-14T13:32:11.978Z,15.80
2018-03-14T13:34:46.063Z,15.60
2018-03-14T13:37:19.705Z,14.60
2018-03-14T13:39:53.434Z,14.90
2018-03-14T13:42:27.198Z,16.40
2018-03-14T13:45:00.908Z,15.80
2018-03-14T13:47:34.699Z,15.30
2018-03-14T13:50:08.329Z,16.10
2018-03-14T13:52:42.013Z,13.60
2018-03-14T13:55:16.173Z,12.80
2018-03-14T13:57:49.770Z,13.40
2018-03-14T14:00:23.373Z,14.00
2018-03-14T14:02:57.930Z,13.40
2018-03-14T14:05:32.392Z,13.40
2018-03-14T14:08:07.074Z,13.40
2018-03-14T14:10:40.711Z,14.10
2018-03-14T14:13:15.291Z,13.70
2018-03-14T14:15:48.959Z,13.70
2018-03-14T14:18:23.792Z,14.00
2018-03-14T14:20:59.157Z,13.10
2018-03-14T14:23:35.104Z,14.10
2018-03-14T14:26:11.793Z,12.60
2018-03-14T14:28:46.482Z,13.60
2018-03-14T14:31:20.722Z,13.30
2018-03-14T14:33:55.352Z,13.20
2018-03-14T14:36:29.107Z,13.20
2018-03-14T14:39:02.873Z,13.30
2018-03-14T14:41:37.694Z,12.80
2018-03-14T14:44:11.362Z,12.50
2018-03-14T14:46:45.097Z,12.20
2018-03-14T14:49:18.750Z,11.80
2018-03-14T14:51:52.521Z,11.70
2018-03-14T14:54:27.282Z,11.80
2018-03-14T14:57:00.894Z,11.40
2018-03-14T14:59:34.621Z,11.20
2018-03-14T15:02:09.076Z,10.80
2018-03-14T15:04:42.713Z,10.90
2018-03-14T15:07:16.522Z,11.30
2018-03-14T15:09:50.208Z,11.50
2018-03-14T15:12:24.061Z,11.90
2018-03-14T15:14:58.436Z,11.40
2018-03-14T15:17:32.217Z,11.40
2018-03-14T15:20:07.053Z,11.50
2018-03-14T15:22:40.764Z,11.20
2018-03-14T15:25:16.692Z,11.30
2018-03-14T15:27:50.348Z,11.30
2018-03-14T15:30:25.761Z,11.10
2018-03-14T15:32:59.794Z,11.10
2018-03-14T15:35:33.533Z,11.30
2018-03-14T15:41:18.373Z,10.20
2018-03-14T15:43:55.668Z,11.10
2018-03-14T15:46:29.723Z,10.80
2018-03-14T15:49:03.466Z,10.30
2018-03-14T15:51:37.194Z,10.80
2018-03-14T15:54:10.971Z,10.70
2018-03-14T15:56:44.689Z,11.00
2018-03-14T15:59:18.513Z,11.20
2018-03-14T16:01:52.294Z,11.70
2018-03-14T16:04:26.675Z,12.20
2018-03-14T16:07:01.223Z,12.30
2018-03-14T16:09:36.245Z,12.20
2018-03-14T16:12:11.416Z,12.40
2018-03-14T16:14:46.210Z,12.20
2018-03-14T16:17:20.925Z,12.50
2018-03-14T16:19:55.602Z,12.10
2018-03-14T16:22:29.246Z,12.10
2018-03-14T16:25:04.919Z,12.50
2018-03-14T16:27:39.697Z,12.50
2018-03-14T16:30:14.656Z,12.90
2018-03-14T16:32:49.850Z,12.40
2018-03-14T16:35:24.376Z,12.70
2018-03-14T16:37:58.017Z,12.70
2018-03-14T16:40:33.059Z,13.40
2018-03-14T16:43:06.791Z,13.40
2018-03-14T16:45:44.456Z,14.10
2018-03-14T16:48:19.626Z,14.00
2018-03-14T16:50:56.905Z,13.70
2018-03-14T16:53:34.720Z,13.70
2018-03-14T16:56:19.690Z,13.30
2018-03-14T17:01:33.016Z,13.70
2018-03-14T17:04:08.776Z,13.60
2018-03-14T17:06:47.231Z,13.80
2018-03-14T17:09:21.869Z,14.20
2018-03-14T17:11:59.268Z,14.20
2018-03-14T17:14:33.474Z,14.60
2018-03-14T17:17:08.795Z,14.50
2018-03-14T17:19:47.596Z,14.50
2018-03-14T17:22:22.116Z,14.80
2018-03-14T17:25:01.004Z,14.70
2018-03-14T17:27:57.423Z,14.80
2018-03-14T17:42:09.239Z,15.90
2018-03-14T17:48:15.790Z,16.20
2018-03-14T17:56:29.114Z,16.40
2018-03-14T17:59:05.689Z,16.50
2018-03-14T18:01:40.667Z,16.30
2018-03-14T18:04:14.968Z,16.60
2018-03-14T18:06:50.765Z,17.00
2018-03-14T18:09:29.173Z,16.80
2018-03-14T18:12:04.292Z,17.10
2018-03-14T18:14:37.902Z,16.80
2018-03-14T18:17:12.357Z,16.80
2018-03-14T18:22:34.855Z,17.30
2018-03-14T18:27:53.899Z,16.50
2018-03-14T18:33:15.553Z,16.70
2018-03-14T18:35:50.287Z,17.40
2018-03-14T18:38:27.055Z,16.70
2018-03-14T18:43:42.696Z,16.50
2018-03-14T18:48:55.471Z,16.50
2018-03-14T18:51:30.327Z,17.00
2018-03-14T18:59:41.835Z,17.90
2018-03-14T19:02:19.326Z,18.30
2018-03-14T19:04:58.151Z,18.30
2018-03-14T19:07:41.280Z,18.60
2018-03-14T19:10:21.038Z,18.90
2018-03-14T19:12:57.612Z,19.10
2018-03-14T19:15:36.759Z,19.10
2018-03-14T19:18:13.218Z,19.00
2018-03-14T19:23:31.073Z,18.10
2018-03-14T19:26:12.203Z,18.60
2018-03-14T19:34:41.554Z,17.70
2018-03-14T19:37:26.061Z,18.30
2018-03-14T19:40:02.574Z,18.50
2018-03-14T19:42:38.794Z,18.30
2018-03-14T19:45:14.638Z,18.60
2018-03-14T19:50:37.329Z,17.90
2018-03-14T19:53:16.580Z,18.30
2018-03-14T19:58:39.829Z,18.70
2018-03-14T20:01:17.178Z,19.30
2018-03-14T20:06:41.092Z,19.10
2018-03-14T20:12:18.447Z,19.30
2018-03-14T20:14:53.746Z,19.60
2018-03-14T20:17:32.937Z,19.90
2018-03-14T20:20:09.053Z,20.10
2018-03-14T20:31:33.299Z,21.90
2018-03-14T20:39:40.873Z,22.80
2018-03-14T20:50:54.532Z,25.00
2018-03-14T20:59:46.540Z,25.00
2018-03-14T21:02:35.502Z,25.40
2018-03-14T21:05:10.185Z,27.00
2018-03-14T21:16:09.112Z,28.70
2018-03-14T21:18:51.752Z,28.70
2018-03-14T21:21:28.700Z,29.30
2018-03-14T21:26:45.551Z,30.70
2018-03-14T21:29:19.161Z,30.40
2018-03-14T21:31:55.406Z,30.40
2018-03-14T21:37:46.861Z,30.20
2018-03-14T21:43:02.786Z,30.90
2018-03-14T21:48:56.806Z,30.80
2018-03-14T21:51:30.528Z,31.00
2018-03-14T21:54:04.623Z,30.60
2018-03-14T21:56:41.524Z,30.10
2018-03-14T21:59:17.857Z,29.90
2018-03-14T22:01:53.867Z,30.20
2018-03-14T22:04:29.235Z,30.30
2018-03-14T22:07:05.660Z,30.60
2018-03-14T22:09:46.421Z,31.20
2018-03-14T22:12:21.209Z,31.70
2018-03-14T22:14:59.708Z,32.00
2018-03-14T22:23:02.188Z,34.30
2018-03-14T22:25:36.159Z,35.50
2018-03-14T22:28:10.029Z,35.50
2018-03-14T22:30:45.293Z,36.40
2018-03-14T22:35:57.051Z,37.30
2018-03-14T22:38:31.506Z,37.60
2018-03-14T22:41:06.560Z,38.30
2018-03-14T22:43:41.809Z,39.10
2018-03-14T22:46:16.724Z,39.60
2018-03-14T22:48:51.355Z,40.10
2018-03-14T22:51:25.144Z,40.40
2018-03-14T22:53:58.951Z,40.60
2018-03-14T22:56:32.744Z,41.60
2018-03-14T22:59:07.505Z,42.00
2018-03-14T23:01:41.153Z,42.00
2018-03-14T23:04:16.202Z,42.10
2018-03-14T23:06:49.884Z,43.90
2018-03-14T23:09:23.630Z,43.70
2018-03-14T23:11:57.417Z,42.80
2018-03-14T23:14:31.142Z,42.50
2018-03-14T23:17:05.390Z,42.80
2018-03-14T23:19:42.269Z,43.00
2018-03-14T23:22:17.713Z,43.20
2018-03-14T23:24:51.348Z,44.10
2018-03-14T23:27:27.496Z,45.30
2018-03-14T23:30:02.013Z,45.60
2018-03-14T23:32:36.270Z,46.80
2018-03-14T23:35:10.076Z,49.30
2018-03-14T23:37:48.832Z,52.10
2018-03-14T23:40:22.730Z,55.50
2018-03-14T23:42:56.490Z,58.90
2018-03-14T23:45:31.160Z,61.40
2018-03-14T23:48:07.385Z,68.50
2018-03-14T23:50:41.410Z,68.40
2018-03-14T23:53:17.919Z,70.10
2018-03-14T23:55:52.735Z,70.00
2018-03-14T23:58:26.544Z,71.70
